Terminal Aerodrome Forecast
Issued by NWS Boston, MA

Home | Current Version | Previous Version | Text Only | Print | Product List | Glossary On
Versions: 1 2 3 4 5 6 7 8 9 10 11 12 13 14 15 16 17 18 19 20 21 22 23 24
000
FTUS41 KBOX 280529
TAFBDL
TAF
KBDL 280529Z 2806/2912 16007KT P6SM SKC
     FM281000 VRB03KT P6SM SCT250
     FM281900 20007KT P6SM FEW150
     FM290800 20005KT P6SM BKN060=

USA.gov is the U.S. government's official web portal to all federal, state and local government web resources and services.